sensor_id;sensor_type;location;lat;lon;timestamp;P1;durP1;ratioP1;P2;durP2;ratioP2
4023;SDS011;2026;51.002;13.668;2023-07-16T00:01:51;6.55;;;4.68;;
4023;SDS011;2026;51.002;13.668;2023-07-16T00:06:56;7.07;;;5.32;;
4023;SDS011;2026;51.002;13.668;2023-07-16T00:11:59;8.40;;;5.70;;
4023;SDS011;2026;51.002;13.668;2023-07-16T00:17:02;6.93;;;4.85;;
4023;SDS011;2026;51.002;13.668;2023-07-16T00:22:06;7.05;;;4.60;;
4023;SDS011;2026;51.002;13.668;2023-07-16T00:27:09;11.25;;;4.63;;
4023;SDS011;2026;51.002;13.668;2023-07-16T00:32:12;5.35;;;4.38;;
4023;SDS011;2026;51.002;13.668;2023-07-16T00:37:17;6.57;;;4.32;;
4023;SDS011;2026;51.002;13.668;2023-07-16T00:42:20;4.65;;;4.22;;
4023;SDS011;2026;51.002;13.668;2023-07-16T00:47:23;6.45;;;4.50;;
4023;SDS011;2026;51.002;13.668;2023-07-16T00:52:27;5.43;;;4.18;;
4023;SDS011;2026;51.002;13.668;2023-07-16T00:57:30;7.55;;;4.65;;
4023;SDS011;2026;51.002;13.668;2023-07-16T01:02:33;4.75;;;4.25;;
4023;SDS011;2026;51.002;13.668;2023-07-16T01:07:38;5.60;;;4.20;;
4023;SDS011;2026;51.002;13.668;2023-07-16T01:12:48;5.38;;;4.00;;
4023;SDS011;2026;51.002;13.668;2023-07-16T01:17:53;5.40;;;3.92;;
4023;SDS011;2026;51.002;13.668;2023-07-16T01:23:12;3.42;;;3.13;;
4023;SDS011;2026;51.002;13.668;2023-07-16T01:28:35;5.63;;;2.88;;
4023;SDS011;2026;51.002;13.668;2023-07-16T01:33:52;3.10;;;2.90;;
4023;SDS011;2026;51.002;13.668;2023-07-16T01:38:57;3.05;;;2.75;;
4023;SDS011;2026;51.002;13.668;2023-07-16T01:44:00;3.08;;;2.78;;
4023;SDS011;2026;51.002;13.668;2023-07-16T01:49:05;2.30;;;2.10;;
4023;SDS011;2026;51.002;13.668;2023-07-16T01:54:08;2.47;;;2.10;;
4023;SDS011;2026;51.002;13.668;2023-07-16T01:59:11;3.30;;;2.03;;
4023;SDS011;2026;51.002;13.668;2023-07-16T02:04:15;4.45;;;2.00;;
4023;SDS011;2026;51.002;13.668;2023-07-16T02:09:18;2.63;;;2.15;;
4023;SDS011;2026;51.002;13.668;2023-07-16T02:14:21;4.75;;;2.15;;
4023;SDS011;2026;51.002;13.668;2023-07-16T02:19:25;2.33;;;2.10;;
4023;SDS011;2026;51.002;13.668;2023-07-16T02:24:30;3.35;;;2.17;;
4023;SDS011;2026;51.002;13.668;2023-07-16T02:29:33;4.57;;;2.30;;
4023;SDS011;2026;51.002;13.668;2023-07-16T02:34:37;4.00;;;2.53;;
4023;SDS011;2026;51.002;13.668;2023-07-16T02:39:41;3.95;;;2.13;;
4023;SDS011;2026;51.002;13.668;2023-07-16T02:44:44;4.03;;;1.73;;
4023;SDS011;2026;51.002;13.668;2023-07-16T02:49:51;2.30;;;1.97;;
4023;SDS011;2026;51.002;13.668;2023-07-16T02:54:54;2.37;;;1.70;;
4023;SDS011;2026;51.002;13.668;2023-07-16T02:59:57;2.73;;;1.77;;
4023;SDS011;2026;51.002;13.668;2023-07-16T03:05:02;2.40;;;1.67;;
4023;SDS011;2026;51.002;13.668;2023-07-16T03:10:05;5.53;;;2.13;;
4023;SDS011;2026;51.002;13.668;2023-07-16T03:15:09;2.30;;;1.80;;
4023;SDS011;2026;51.002;13.668;2023-07-16T03:20:14;3.20;;;1.80;;
4023;SDS011;2026;51.002;13.668;2023-07-16T03:25:17;1.63;;;1.53;;
4023;SDS011;2026;51.002;13.668;2023-07-16T03:30:20;2.97;;;1.80;;
4023;SDS011;2026;51.002;13.668;2023-07-16T03:35:24;4.03;;;2.13;;
4023;SDS011;2026;51.002;13.668;2023-07-16T03:40:28;2.93;;;2.33;;
4023;SDS011;2026;51.002;13.668;2023-07-16T03:45:32;2.90;;;2.13;;
4023;SDS011;2026;51.002;13.668;2023-07-16T03:50:38;3.00;;;2.20;;
4023;SDS011;2026;51.002;13.668;2023-07-16T03:55:41;2.60;;;2.40;;
4023;SDS011;2026;51.002;13.668;2023-07-16T04:00:44;3.23;;;2.43;;
4023;SDS011;2026;51.002;13.668;2023-07-16T04:05:48;3.73;;;2.50;;
4023;SDS011;2026;51.002;13.668;2023-07-16T04:10:51;2.87;;;2.23;;
4023;SDS011;2026;51.002;13.668;2023-07-16T04:15:57;3.73;;;2.67;;
4023;SDS011;2026;51.002;13.668;2023-07-16T04:21:01;4.13;;;2.50;;
4023;SDS011;2026;51.002;13.668;2023-07-16T04:26:04;3.10;;;2.60;;
4023;SDS011;2026;51.002;13.668;2023-07-16T04:31:07;4.00;;;2.60;;
4023;SDS011;2026;51.002;13.668;2023-07-16T04:36:11;2.80;;;2.57;;
4023;SDS011;2026;51.002;13.668;2023-07-16T04:41:16;3.70;;;2.60;;
4023;SDS011;2026;51.002;13.668;2023-07-16T04:46:19;2.63;;;2.43;;
4023;SDS011;2026;51.002;13.668;2023-07-16T04:51:23;2.53;;;2.23;;
4023;SDS011;2026;51.002;13.668;2023-07-16T04:56:26;2.60;;;2.40;;
4023;SDS011;2026;51.002;13.668;2023-07-16T05:01:29;2.67;;;2.47;;
4023;SDS011;2026;51.002;13.668;2023-07-16T05:06:33;2.77;;;2.20;;
4023;SDS011;2026;51.002;13.668;2023-07-16T05:11:36;2.20;;;2.00;;
4023;SDS011;2026;51.002;13.668;2023-07-16T05:16:40;2.13;;;1.93;;
4023;SDS011;2026;51.002;13.668;2023-07-16T05:21:44;2.40;;;2.20;;
4023;SDS011;2026;51.002;13.668;2023-07-16T05:26:47;3.40;;;2.17;;
4023;SDS011;2026;51.002;13.668;2023-07-16T05:31:51;2.60;;;2.30;;
4023;SDS011;2026;51.002;13.668;2023-07-16T05:36:55;2.40;;;2.20;;
4023;SDS011;2026;51.002;13.668;2023-07-16T05:41:58;2.97;;;2.40;;
4023;SDS011;2026;51.002;13.668;2023-07-16T05:47:03;1.97;;;1.83;;
4023;SDS011;2026;51.002;13.668;2023-07-16T05:52:08;4.63;;;2.20;;
4023;SDS011;2026;51.002;13.668;2023-07-16T05:57:11;3.33;;;2.60;;
4023;SDS011;2026;51.002;13.668;2023-07-16T06:02:14;2.97;;;2.40;;
4023;SDS011;2026;51.002;13.668;2023-07-16T06:07:19;3.27;;;2.30;;
4023;SDS011;2026;51.002;13.668;2023-07-16T06:12:22;2.65;;;2.42;;
4023;SDS011;2026;51.002;13.668;2023-07-16T06:17:25;3.15;;;2.60;;
4023;SDS011;2026;51.002;13.668;2023-07-16T06:22:29;3.08;;;2.40;;
4023;SDS011;2026;51.002;13.668;2023-07-16T06:27:32;2.60;;;2.40;;
4023;SDS011;2026;51.002;13.668;2023-07-16T06:32:35;2.65;;;2.45;;
4023;SDS011;2026;51.002;13.668;2023-07-16T06:37:40;4.30;;;2.67;;
4023;SDS011;2026;51.002;13.668;2023-07-16T06:42:43;4.28;;;2.88;;
4023;SDS011;2026;51.002;13.668;2023-07-16T06:47:46;2.55;;;2.10;;
4023;SDS011;2026;51.002;13.668;2023-07-16T06:52:50;3.03;;;2.35;;
4023;SDS011;2026;51.002;13.668;2023-07-16T06:57:53;2.30;;;2.10;;
4023;SDS011;2026;51.002;13.668;2023-07-16T07:02:56;2.75;;;2.22;;
4023;SDS011;2026;51.002;13.668;2023-07-16T07:08:01;6.18;;;2.10;;
4023;SDS011;2026;51.002;13.668;2023-07-16T07:13:03;3.15;;;2.30;;
4023;SDS011;2026;51.002;13.668;2023-07-16T07:18:06;2.50;;;2.30;;
4023;SDS011;2026;51.002;13.668;2023-07-16T07:23:11;3.33;;;2.42;;
4023;SDS011;2026;51.002;13.668;2023-07-16T07:28:14;2.70;;;2.50;;
4023;SDS011;2026;51.002;13.668;2023-07-16T07:33:17;2.75;;;2.55;;
4023;SDS011;2026;51.002;13.668;2023-07-16T07:38:21;3.17;;;1.98;;
4023;SDS011;2026;51.002;13.668;2023-07-16T07:45:27;7.13;;;2.58;;
4023;SDS011;2026;51.002;13.668;2023-07-16T07:50:30;4.07;;;3.08;;
4023;SDS011;2026;51.002;13.668;2023-07-16T07:55:33;3.75;;;3.25;;
4023;SDS011;2026;51.002;13.668;2023-07-16T08:00:38;3.20;;;2.88;;
4023;SDS011;2026;51.002;13.668;2023-07-16T08:05:41;6.82;;;2.47;;
4023;SDS011;2026;51.002;13.668;2023-07-16T08:10:44;2.53;;;2.30;;
4023;SDS011;2026;51.002;13.668;2023-07-16T08:15:48;3.25;;;2.95;;
4023;SDS011;2026;51.002;13.668;2023-07-16T08:20:51;4.85;;;3.20;;
4023;SDS011;2026;51.002;13.668;2023-07-16T08:25:54;4.78;;;2.78;;
4023;SDS011;2026;51.002;13.668;2023-07-16T08:30:59;4.57;;;2.90;;
4023;SDS011;2026;51.002;13.668;2023-07-16T08:36:02;6.85;;;3.13;;
4023;SDS011;2026;51.002;13.668;2023-07-16T08:41:05;4.05;;;2.40;;
4023;SDS011;2026;51.002;13.668;2023-07-16T08:46:09;3.33;;;2.70;;
4023;SDS011;2026;51.002;13.668;2023-07-16T08:51:14;3.70;;;2.60;;
4023;SDS011;2026;51.002;13.668;2023-07-16T08:56:17;2.70;;;2.50;;
4023;SDS011;2026;51.002;13.668;2023-07-16T09:01:22;2.45;;;2.25;;
4023;SDS011;2026;51.002;13.668;2023-07-16T09:06:25;3.72;;;2.70;;
4023;SDS011;2026;51.002;13.668;2023-07-16T09:11:29;5.13;;;2.80;;
4023;SDS011;2026;51.002;13.668;2023-07-16T09:16:33;4.30;;;2.70;;
4023;SDS011;2026;51.002;13.668;2023-07-16T09:21:37;2.55;;;2.35;;
4023;SDS011;2026;51.002;13.668;2023-07-16T09:26:47;3.58;;;2.42;;
4023;SDS011;2026;51.002;13.668;2023-07-16T09:31:53;2.83;;;2.35;;
4023;SDS011;2026;51.002;13.668;2023-07-16T09:36:57;4.65;;;4.07;;
4023;SDS011;2026;51.002;13.668;2023-07-16T09:42:00;4.80;;;2.50;;
4023;SDS011;2026;51.002;13.668;2023-07-16T09:47:05;3.10;;;2.20;;
4023;SDS011;2026;51.002;13.668;2023-07-16T09:52:08;3.63;;;2.20;;
4023;SDS011;2026;51.002;13.668;2023-07-16T09:57:12;3.10;;;2.45;;
4023;SDS011;2026;51.002;13.668;2023-07-16T10:02:18;3.28;;;2.40;;
4023;SDS011;2026;51.002;13.668;2023-07-16T10:07:24;3.15;;;2.78;;
4023;SDS011;2026;51.002;13.668;2023-07-16T10:12:28;4.95;;;2.60;;
4023;SDS011;2026;51.002;13.668;2023-07-16T10:17:32;4.15;;;2.42;;
4023;SDS011;2026;51.002;13.668;2023-07-16T10:22:36;4.43;;;2.72;;
4023;SDS011;2026;51.002;13.668;2023-07-16T10:27:39;4.82;;;2.67;;
4023;SDS011;2026;51.002;13.668;2023-07-16T10:32:44;2.90;;;2.60;;
4023;SDS011;2026;51.002;13.668;2023-07-16T10:37:47;2.83;;;2.47;;
4023;SDS011;2026;51.002;13.668;2023-07-16T10:42:52;4.22;;;2.90;;
4023;SDS011;2026;51.002;13.668;2023-07-16T10:47:56;3.95;;;2.60;;
4023;SDS011;2026;51.002;13.668;2023-07-16T10:53:00;3.80;;;2.67;;
4023;SDS011;2026;51.002;13.668;2023-07-16T10:58:03;3.90;;;2.58;;
4023;SDS011;2026;51.002;13.668;2023-07-16T11:03:09;2.63;;;2.42;;
4023;SDS011;2026;51.002;13.668;2023-07-16T11:08:21;2.70;;;2.50;;
4023;SDS011;2026;51.002;13.668;2023-07-16T11:13:25;5.25;;;3.17;;
4023;SDS011;2026;51.002;13.668;2023-07-16T11:18:30;3.03;;;2.72;;
4023;SDS011;2026;51.002;13.668;2023-07-16T11:23:34;4.70;;;3.15;;
4023;SDS011;2026;51.002;13.668;2023-07-16T11:28:38;4.88;;;2.70;;
4023;SDS011;2026;51.002;13.668;2023-07-16T11:33:43;3.42;;;3.13;;
4023;SDS011;2026;51.002;13.668;2023-07-16T11:38:47;4.65;;;2.80;;
4023;SDS011;2026;51.002;13.668;2023-07-16T11:43:51;3.72;;;2.80;;
4023;SDS011;2026;51.002;13.668;2023-07-16T11:48:55;4.13;;;3.05;;
4023;SDS011;2026;51.002;13.668;2023-07-16T11:53:58;4.60;;;3.22;;
4023;SDS011;2026;51.002;13.668;2023-07-16T11:59:01;3.08;;;2.60;;
4023;SDS011;2026;51.002;13.668;2023-07-16T12:04:06;3.47;;;3.10;;
4023;SDS011;2026;51.002;13.668;2023-07-16T12:09:09;4.05;;;2.97;;
4023;SDS011;2026;51.002;13.668;2023-07-16T12:14:12;4.03;;;3.05;;
4023;SDS011;2026;51.002;13.668;2023-07-16T12:19:16;3.50;;;3.08;;
4023;SDS011;2026;51.002;13.668;2023-07-16T12:24:19;4.22;;;3.30;;
4023;SDS011;2026;51.002;13.668;2023-07-16T12:29:22;5.70;;;2.67;;
4023;SDS011;2026;51.002;13.668;2023-07-16T12:34:27;4.25;;;3.00;;
4023;SDS011;2026;51.002;13.668;2023-07-16T12:39:30;2.90;;;2.65;;
4023;SDS011;2026;51.002;13.668;2023-07-16T12:44:33;4.13;;;2.97;;
4023;SDS011;2026;51.002;13.668;2023-07-16T12:49:37;4.70;;;3.00;;
4023;SDS011;2026;51.002;13.668;2023-07-16T12:54:40;4.13;;;3.10;;
4023;SDS011;2026;51.002;13.668;2023-07-16T12:59:43;5.05;;;3.28;;
4023;SDS011;2026;51.002;13.668;2023-07-16T13:04:47;3.22;;;2.90;;
4023;SDS011;2026;51.002;13.668;2023-07-16T13:09:50;3.08;;;2.78;;
4023;SDS011;2026;51.002;13.668;2023-07-16T13:15:12;3.30;;;2.92;;
4023;SDS011;2026;51.002;13.668;2023-07-16T13:20:18;4.25;;;3.35;;
4023;SDS011;2026;51.002;13.668;2023-07-16T13:25:22;3.83;;;3.13;;
4023;SDS011;2026;51.002;13.668;2023-07-16T13:30:28;4.90;;;3.30;;
4023;SDS011;2026;51.002;13.668;2023-07-16T13:35:32;6.57;;;3.05;;
4023;SDS011;2026;51.002;13.668;2023-07-16T13:40:35;3.78;;;3.00;;
4023;SDS011;2026;51.002;13.668;2023-07-16T13:45:39;4.10;;;2.97;;
4023;SDS011;2026;51.002;13.668;2023-07-16T13:50:43;7.25;;;3.05;;
4023;SDS011;2026;51.002;13.668;2023-07-16T13:55:47;5.40;;;3.10;;
4023;SDS011;2026;51.002;13.668;2023-07-16T14:00:51;4.80;;;3.13;;
4023;SDS011;2026;51.002;13.668;2023-07-16T14:05:55;3.83;;;2.92;;
4023;SDS011;2026;51.002;13.668;2023-07-16T14:10:59;3.53;;;2.97;;
4023;SDS011;2026;51.002;13.668;2023-07-16T14:18:13;4.05;;;2.97;;
4023;SDS011;2026;51.002;13.668;2023-07-16T14:23:16;3.25;;;2.70;;
4023;SDS011;2026;51.002;13.668;2023-07-16T14:28:19;3.80;;;2.58;;
4023;SDS011;2026;51.002;13.668;2023-07-16T14:33:24;5.03;;;3.00;;
4023;SDS011;2026;51.002;13.668;2023-07-16T14:38:27;3.33;;;2.58;;
4023;SDS011;2026;51.002;13.668;2023-07-16T14:43:29;4.22;;;2.50;;
4023;SDS011;2026;51.002;13.668;2023-07-16T14:48:34;4.57;;;2.30;;
4023;SDS011;2026;51.002;13.668;2023-07-16T14:53:37;3.65;;;2.70;;
4023;SDS011;2026;51.002;13.668;2023-07-16T14:58:40;5.13;;;2.65;;
4023;SDS011;2026;51.002;13.668;2023-07-16T15:03:44;4.82;;;2.70;;
4023;SDS011;2026;51.002;13.668;2023-07-16T15:08:47;4.07;;;2.45;;
4023;SDS011;2026;51.002;13.668;2023-07-16T15:13:52;6.75;;;2.38;;
4023;SDS011;2026;51.002;13.668;2023-07-16T15:18:57;3.13;;;2.83;;
4023;SDS011;2026;51.002;13.668;2023-07-16T15:24:00;6.07;;;2.58;;
4023;SDS011;2026;51.002;13.668;2023-07-16T15:29:03;5.38;;;2.67;;
4023;SDS011;2026;51.002;13.668;2023-07-16T15:34:08;4.03;;;2.70;;
4023;SDS011;2026;51.002;13.668;2023-07-16T15:39:11;4.35;;;2.40;;
4023;SDS011;2026;51.002;13.668;2023-07-16T15:44:14;3.05;;;2.13;;
4023;SDS011;2026;51.002;13.668;2023-07-16T15:49:19;3.47;;;2.40;;
4023;SDS011;2026;51.002;13.668;2023-07-16T15:54:22;3.95;;;2.30;;
4023;SDS011;2026;51.002;13.668;2023-07-16T15:59:25;4.03;;;2.88;;
4023;SDS011;2026;51.002;13.668;2023-07-16T16:04:29;4.43;;;2.30;;
4023;SDS011;2026;51.002;13.668;2023-07-16T16:09:32;6.32;;;2.85;;
4023;SDS011;2026;51.002;13.668;2023-07-16T16:14:35;3.90;;;3.00;;
4023;SDS011;2026;51.002;13.668;2023-07-16T16:19:39;7.55;;;2.63;;
4023;SDS011;2026;51.002;13.668;2023-07-16T16:24:44;3.50;;;2.50;;
4023;SDS011;2026;51.002;13.668;2023-07-16T16:29:48;3.90;;;2.63;;
4023;SDS011;2026;51.002;13.668;2023-07-16T16:34:52;3.88;;;2.88;;
4023;SDS011;2026;51.002;13.668;2023-07-16T16:39:55;3.83;;;2.80;;
4023;SDS011;2026;51.002;13.668;2023-07-16T16:45:00;4.35;;;2.70;;
4023;SDS011;2026;51.002;13.668;2023-07-16T16:50:08;5.47;;;3.10;;
4023;SDS011;2026;51.002;13.668;2023-07-16T16:55:12;3.15;;;2.50;;
4023;SDS011;2026;51.002;13.668;2023-07-16T17:00:15;6.07;;;2.80;;
4023;SDS011;2026;51.002;13.668;2023-07-16T17:05:20;2.92;;;2.55;;
4023;SDS011;2026;51.002;13.668;2023-07-16T17:10:25;4.97;;;2.72;;
4023;SDS011;2026;51.002;13.668;2023-07-16T17:15:28;7.72;;;2.67;;
4023;SDS011;2026;51.002;13.668;2023-07-16T17:25:37;4.43;;;2.95;;
4023;SDS011;2026;51.002;13.668;2023-07-16T17:30:40;4.50;;;2.60;;
4023;SDS011;2026;51.002;13.668;2023-07-16T17:35:45;3.17;;;2.53;;
4023;SDS011;2026;51.002;13.668;2023-07-16T17:40:47;4.78;;;2.67;;
4023;SDS011;2026;51.002;13.668;2023-07-16T17:45:54;4.18;;;2.88;;
4023;SDS011;2026;51.002;13.668;2023-07-16T17:50:59;3.67;;;2.97;;
4023;SDS011;2026;51.002;13.668;2023-07-16T17:56:02;3.13;;;2.83;;
4023;SDS011;2026;51.002;13.668;2023-07-16T18:01:05;4.78;;;3.42;;
4023;SDS011;2026;51.002;13.668;2023-07-16T18:06:09;4.05;;;2.80;;
4023;SDS011;2026;51.002;13.668;2023-07-16T18:11:12;4.35;;;3.20;;
4023;SDS011;2026;51.002;13.668;2023-07-16T18:16:15;4.55;;;3.38;;
4023;SDS011;2026;51.002;13.668;2023-07-16T18:21:20;4.60;;;3.00;;
4023;SDS011;2026;51.002;13.668;2023-07-16T18:26:30;5.68;;;3.00;;
4023;SDS011;2026;51.002;13.668;2023-07-16T18:31:33;5.18;;;3.17;;
4023;SDS011;2026;51.002;13.668;2023-07-16T18:36:37;6.28;;;3.47;;
4023;SDS011;2026;51.002;13.668;2023-07-16T18:41:40;5.45;;;3.20;;
4023;SDS011;2026;51.002;13.668;2023-07-16T18:46:43;4.68;;;3.10;;
4023;SDS011;2026;51.002;13.668;2023-07-16T18:51:48;4.15;;;3.45;;
4023;SDS011;2026;51.002;13.668;2023-07-16T18:56:51;7.57;;;3.53;;
4023;SDS011;2026;51.002;13.668;2023-07-16T19:01:54;3.63;;;3.33;;
4023;SDS011;2026;51.002;13.668;2023-07-16T19:06:59;4.95;;;3.75;;
4023;SDS011;2026;51.002;13.668;2023-07-16T19:12:02;7.25;;;3.70;;
4023;SDS011;2026;51.002;13.668;2023-07-16T19:17:12;6.25;;;3.80;;
4023;SDS011;2026;51.002;13.668;2023-07-16T19:22:17;5.82;;;3.65;;
4023;SDS011;2026;51.002;13.668;2023-07-16T19:27:19;5.25;;;3.53;;
4023;SDS011;2026;51.002;13.668;2023-07-16T19:32:23;7.15;;;3.85;;
4023;SDS011;2026;51.002;13.668;2023-07-16T19:37:27;6.18;;;3.80;;
4023;SDS011;2026;51.002;13.668;2023-07-16T19:42:32;6.45;;;3.42;;
4023;SDS011;2026;51.002;13.668;2023-07-16T19:47:35;7.20;;;4.50;;
4023;SDS011;2026;51.002;13.668;2023-07-16T19:52:40;5.97;;;3.90;;
4023;SDS011;2026;51.002;13.668;2023-07-16T19:57:43;6.38;;;3.65;;
4023;SDS011;2026;51.002;13.668;2023-07-16T20:02:46;10.18;;;4.10;;
4023;SDS011;2026;51.002;13.668;2023-07-16T20:07:51;7.13;;;4.85;;
4023;SDS011;2026;51.002;13.668;2023-07-16T20:12:54;5.93;;;4.15;;
4023;SDS011;2026;51.002;13.668;2023-07-16T20:17:57;6.25;;;4.55;;
4023;SDS011;2026;51.002;13.668;2023-07-16T20:23:01;6.32;;;4.40;;
4023;SDS011;2026;51.002;13.668;2023-07-16T20:28:06;8.88;;;6.75;;
4023;SDS011;2026;51.002;13.668;2023-07-16T20:33:10;6.57;;;4.15;;
4023;SDS011;2026;51.002;13.668;2023-07-16T20:38:16;7.05;;;4.35;;
4023;SDS011;2026;51.002;13.668;2023-07-16T20:43:19;8.63;;;5.78;;
4023;SDS011;2026;51.002;13.668;2023-07-16T20:48:23;6.05;;;4.22;;
4023;SDS011;2026;51.002;13.668;2023-07-16T20:53:28;6.10;;;4.10;;
4023;SDS011;2026;51.002;13.668;2023-07-16T20:58:31;5.65;;;4.00;;
4023;SDS011;2026;51.002;13.668;2023-07-16T21:03:35;7.55;;;3.90;;
4023;SDS011;2026;51.002;13.668;2023-07-16T21:08:39;6.00;;;3.97;;
4023;SDS011;2026;51.002;13.668;2023-07-16T21:13:42;11.05;;;5.18;;
4023;SDS011;2026;51.002;13.668;2023-07-16T21:18:45;5.60;;;4.50;;
4023;SDS011;2026;51.002;13.668;2023-07-16T21:23:49;6.45;;;4.00;;
4023;SDS011;2026;51.002;13.668;2023-07-16T21:28:52;6.65;;;4.75;;
4023;SDS011;2026;51.002;13.668;2023-07-16T21:33:55;8.10;;;4.40;;
4023;SDS011;2026;51.002;13.668;2023-07-16T21:39:00;6.95;;;4.45;;
4023;SDS011;2026;51.002;13.668;2023-07-16T21:44:03;5.50;;;3.95;;
4023;SDS011;2026;51.002;13.668;2023-07-16T21:49:06;4.15;;;3.65;;
4023;SDS011;2026;51.002;13.668;2023-07-16T21:54:10;7.15;;;4.43;;
4023;SDS011;2026;51.002;13.668;2023-07-16T21:59:13;6.65;;;4.40;;
4023;SDS011;2026;51.002;13.668;2023-07-16T22:04:16;5.70;;;4.60;;
4023;SDS011;2026;51.002;13.668;2023-07-16T22:09:21;6.97;;;4.50;;
4023;SDS011;2026;51.002;13.668;2023-07-16T22:14:24;10.30;;;4.53;;
4023;SDS011;2026;51.002;13.668;2023-07-16T22:19:27;6.20;;;4.63;;
4023;SDS011;2026;51.002;13.668;2023-07-16T22:24:35;7.10;;;4.80;;
4023;SDS011;2026;51.002;13.668;2023-07-16T22:29:38;6.83;;;4.50;;
4023;SDS011;2026;51.002;13.668;2023-07-16T22:34:40;5.60;;;4.50;;
4023;SDS011;2026;51.002;13.668;2023-07-16T22:39:47;5.73;;;4.77;;
4023;SDS011;2026;51.002;13.668;2023-07-16T22:44:50;8.10;;;4.43;;
4023;SDS011;2026;51.002;13.668;2023-07-16T22:49:53;4.80;;;3.97;;
4023;SDS011;2026;51.002;13.668;2023-07-16T22:54:57;7.47;;;4.83;;
4023;SDS011;2026;51.002;13.668;2023-07-16T23:00:00;5.60;;;4.50;;
4023;SDS011;2026;51.002;13.668;2023-07-16T23:05:03;5.77;;;4.57;;
4023;SDS011;2026;51.002;13.668;2023-07-16T23:10:09;9.30;;;4.27;;
4023;SDS011;2026;51.002;13.668;2023-07-16T23:15:12;6.43;;;4.83;;
4023;SDS011;2026;51.002;13.668;2023-07-16T23:20:16;4.90;;;4.40;;
4023;SDS011;2026;51.002;13.668;2023-07-16T23:25:21;5.20;;;4.60;;
4023;SDS011;2026;51.002;13.668;2023-07-16T23:30:26;7.40;;;5.00;;
4023;SDS011;2026;51.002;13.668;2023-07-16T23:35:33;6.30;;;4.97;;
4023;SDS011;2026;51.002;13.668;2023-07-16T23:40:37;7.60;;;5.27;;
4023;SDS011;2026;51.002;13.668;2023-07-16T23:45:40;5.83;;;5.13;;
4023;SDS011;2026;51.002;13.668;2023-07-16T23:50:43;6.77;;;4.83;;
4023;SDS011;2026;51.002;13.668;2023-07-16T23:55:48;9.20;;;5.03;;
